sensor_id;sensor_type;location;lat;lon;timestamp;temperature;humidity
1778;DHT22;886;50.082;8.222;2023-02-15T00:00:03;3.40;99.90
1778;DHT22;886;50.082;8.222;2023-02-15T00:02:32;3.40;99.90
1778;DHT22;886;50.082;8.222;2023-02-15T00:05:00;3.50;99.90
1778;DHT22;886;50.082;8.222;2023-02-15T00:07:28;3.50;99.90
1778;DHT22;886;50.082;8.222;2023-02-15T00:09:55;3.60;99.90
1778;DHT22;886;50.082;8.222;2023-02-15T00:12:22;3.50;99.90
1778;DHT22;886;50.082;8.222;2023-02-15T00:14:50;3.50;99.90
1778;DHT22;886;50.082;8.222;2023-02-15T00:17:17;3.50;99.90
1778;DHT22;886;50.082;8.222;2023-02-15T00:19:45;3.50;99.90
1778;DHT22;886;50.082;8.222;2023-02-15T00:22:13;3.50;99.90
1778;DHT22;886;50.082;8.222;2023-02-15T00:24:40;3.50;99.90
1778;DHT22;886;50.082;8.222;2023-02-15T00:27:07;3.50;99.90
1778;DHT22;886;50.082;8.222;2023-02-15T00:29:36;3.40;99.90
1778;DHT22;886;50.082;8.222;2023-02-15T00:32:03;3.40;99.90
1778;DHT22;886;50.082;8.222;2023-02-15T00:34:32;3.50;99.90
1778;DHT22;886;50.082;8.222;2023-02-15T00:37:13;3.30;99.90
1778;DHT22;886;50.082;8.222;2023-02-15T00:39:41;3.40;99.90
1778;DHT22;886;50.082;8.222;2023-02-15T00:42:08;3.40;99.90
1778;DHT22;886;50.082;8.222;2023-02-15T00:44:36;3.30;99.90
1778;DHT22;886;50.082;8.222;2023-02-15T00:47:03;3.40;99.90
1778;DHT22;886;50.082;8.222;2023-02-15T00:49:30;3.40;99.90
1778;DHT22;886;50.082;8.222;2023-02-15T00:51:57;3.40;99.90
1778;DHT22;886;50.082;8.222;2023-02-15T00:54:27;3.30;99.90
1778;DHT22;886;50.082;8.222;2023-02-15T00:56:54;3.30;99.90
1778;DHT22;886;50.082;8.222;2023-02-15T00:59:21;3.40;99.90
1778;DHT22;886;50.082;8.222;2023-02-15T01:01:48;3.40;99.90
1778;DHT22;886;50.082;8.222;2023-02-15T01:04:15;3.30;99.90
1778;DHT22;886;50.082;8.222;2023-02-15T01:06:43;3.40;99.90
1778;DHT22;886;50.082;8.222;2023-02-15T01:09:10;3.30;99.90
1778;DHT22;886;50.082;8.222;2023-02-15T01:11:40;3.30;99.90
1778;DHT22;886;50.082;8.222;2023-02-15T01:14:07;3.20;99.90
1778;DHT22;886;50.082;8.222;2023-02-15T01:16:35;3.20;99.90
1778;DHT22;886;50.082;8.222;2023-02-15T01:19:02;3.30;99.90
1778;DHT22;886;50.082;8.222;2023-02-15T01:21:29;3.40;99.90
1778;DHT22;886;50.082;8.222;2023-02-15T01:23:56;3.30;99.90
1778;DHT22;886;50.082;8.222;2023-02-15T01:26:23;3.30;99.90
1778;DHT22;886;50.082;8.222;2023-02-15T01:28:52;3.20;99.90
1778;DHT22;886;50.082;8.222;2023-02-15T01:31:21;3.30;99.90
1778;DHT22;886;50.082;8.222;2023-02-15T01:33:49;3.20;99.90
1778;DHT22;886;50.082;8.222;2023-02-15T01:36:17;3.30;99.90
1778;DHT22;886;50.082;8.222;2023-02-15T01:38:44;3.40;99.90
1778;DHT22;886;50.082;8.222;2023-02-15T01:41:12;3.40;99.90
1778;DHT22;886;50.082;8.222;2023-02-15T01:43:56;3.40;99.90
1778;DHT22;886;50.082;8.222;2023-02-15T01:46:28;3.40;99.90
1778;DHT22;886;50.082;8.222;2023-02-15T01:49:03;3.40;99.90
1778;DHT22;886;50.082;8.222;2023-02-15T01:51:36;3.50;99.90
1778;DHT22;886;50.082;8.222;2023-02-15T01:54:09;3.40;99.90
1778;DHT22;886;50.082;8.222;2023-02-15T01:56:39;3.40;99.90
1778;DHT22;886;50.082;8.222;2023-02-15T01:59:14;3.50;99.90
1778;DHT22;886;50.082;8.222;2023-02-15T02:01:44;3.40;99.90
1778;DHT22;886;50.082;8.222;2023-02-15T02:04:16;3.50;99.90
1778;DHT22;886;50.082;8.222;2023-02-15T02:06:48;3.50;99.90
1778;DHT22;886;50.082;8.222;2023-02-15T02:09:15;3.30;99.90
1778;DHT22;886;50.082;8.222;2023-02-15T02:11:46;3.30;99.90
1778;DHT22;886;50.082;8.222;2023-02-15T02:14:15;3.30;99.90
1778;DHT22;886;50.082;8.222;2023-02-15T02:16:48;3.40;99.90
1778;DHT22;886;50.082;8.222;2023-02-15T02:19:52;3.50;99.90
1778;DHT22;886;50.082;8.222;2023-02-15T02:23:04;3.50;99.90
1778;DHT22;886;50.082;8.222;2023-02-15T02:32:13;3.50;99.90
1778;DHT22;886;50.082;8.222;2023-02-15T02:34:55;3.30;99.90
1778;DHT22;886;50.082;8.222;2023-02-15T02:37:33;3.40;99.90
1778;DHT22;886;50.082;8.222;2023-02-15T02:40:14;3.40;99.90
1778;DHT22;886;50.082;8.222;2023-02-15T02:42:48;3.40;99.90
1778;DHT22;886;50.082;8.222;2023-02-15T02:45:22;3.40;99.90
1778;DHT22;886;50.082;8.222;2023-02-15T02:47:54;3.50;99.90
1778;DHT22;886;50.082;8.222;2023-02-15T02:50:27;3.60;99.90
1778;DHT22;886;50.082;8.222;2023-02-15T02:52:57;3.60;99.90
1778;DHT22;886;50.082;8.222;2023-02-15T02:55:28;3.70;99.90
1778;DHT22;886;50.082;8.222;2023-02-15T02:58:00;3.50;99.90
1778;DHT22;886;50.082;8.222;2023-02-15T03:00:32;3.40;99.90
1778;DHT22;886;50.082;8.222;2023-02-15T03:03:05;3.60;99.90
1778;DHT22;886;50.082;8.222;2023-02-15T03:05:37;3.50;99.90
1778;DHT22;886;50.082;8.222;2023-02-15T03:08:09;3.50;99.90
1778;DHT22;886;50.082;8.222;2023-02-15T03:10:39;3.50;99.90
1778;DHT22;886;50.082;8.222;2023-02-15T03:13:08;3.60;99.90
1778;DHT22;886;50.082;8.222;2023-02-15T03:15:38;3.70;99.90
1778;DHT22;886;50.082;8.222;2023-02-15T03:18:29;3.70;99.90
1778;DHT22;886;50.082;8.222;2023-02-15T03:21:01;3.70;99.90
1778;DHT22;886;50.082;8.222;2023-02-15T03:23:30;3.70;99.90
1778;DHT22;886;50.082;8.222;2023-02-15T03:26:01;3.70;99.90
1778;DHT22;886;50.082;8.222;2023-02-15T03:28:33;3.60;99.90
1778;DHT22;886;50.082;8.222;2023-02-15T03:31:05;3.60;99.90
1778;DHT22;886;50.082;8.222;2023-02-15T03:33:36;3.50;99.90
1778;DHT22;886;50.082;8.222;2023-02-15T03:36:12;3.60;99.90
1778;DHT22;886;50.082;8.222;2023-02-15T03:38:53;3.60;99.90
1778;DHT22;886;50.082;8.222;2023-02-15T03:41:27;3.50;99.90
1778;DHT22;886;50.082;8.222;2023-02-15T03:44:03;3.50;99.90
1778;DHT22;886;50.082;8.222;2023-02-15T03:46:37;3.50;99.90
1778;DHT22;886;50.082;8.222;2023-02-15T03:49:10;3.50;99.90
1778;DHT22;886;50.082;8.222;2023-02-15T03:51:44;3.60;99.90
1778;DHT22;886;50.082;8.222;2023-02-15T03:54:16;3.60;99.90
1778;DHT22;886;50.082;8.222;2023-02-15T03:57:09;3.60;99.90
1778;DHT22;886;50.082;8.222;2023-02-15T03:59:56;3.60;99.90
1778;DHT22;886;50.082;8.222;2023-02-15T04:02:54;3.50;99.90
1778;DHT22;886;50.082;8.222;2023-02-15T04:05:30;3.50;99.90
1778;DHT22;886;50.082;8.222;2023-02-15T04:07:59;3.40;99.90
1778;DHT22;886;50.082;8.222;2023-02-15T04:10:26;3.40;99.90
1778;DHT22;886;50.082;8.222;2023-02-15T04:13:12;3.40;99.90
1778;DHT22;886;50.082;8.222;2023-02-15T04:15:39;3.50;99.90
1778;DHT22;886;50.082;8.222;2023-02-15T04:18:25;3.50;99.90
1778;DHT22;886;50.082;8.222;2023-02-15T04:21:11;3.40;99.90
1778;DHT22;886;50.082;8.222;2023-02-15T04:23:58;3.50;99.90
1778;DHT22;886;50.082;8.222;2023-02-15T04:26:44;3.50;99.90
1778;DHT22;886;50.082;8.222;2023-02-15T04:29:13;3.50;99.90
1778;DHT22;886;50.082;8.222;2023-02-15T04:31:40;3.50;99.90
1778;DHT22;886;50.082;8.222;2023-02-15T04:34:07;3.50;99.90
1778;DHT22;886;50.082;8.222;2023-02-15T04:36:35;3.40;99.90
1778;DHT22;886;50.082;8.222;2023-02-15T04:39:03;3.50;99.90
1778;DHT22;886;50.082;8.222;2023-02-15T04:41:31;3.50;99.90
1778;DHT22;886;50.082;8.222;2023-02-15T04:43:58;3.50;99.90
1778;DHT22;886;50.082;8.222;2023-02-15T04:46:27;3.50;99.90
1778;DHT22;886;50.082;8.222;2023-02-15T04:48:55;3.50;99.90
1778;DHT22;886;50.082;8.222;2023-02-15T04:51:23;3.50;99.90
1778;DHT22;886;50.082;8.222;2023-02-15T04:53:50;3.50;99.90
1778;DHT22;886;50.082;8.222;2023-02-15T04:56:22;3.50;99.90
1778;DHT22;886;50.082;8.222;2023-02-15T04:58:49;3.50;99.90
1778;DHT22;886;50.082;8.222;2023-02-15T05:01:17;3.30;99.90
1778;DHT22;886;50.082;8.222;2023-02-15T05:03:44;3.30;99.90
1778;DHT22;886;50.082;8.222;2023-02-15T05:06:11;3.30;99.90
1778;DHT22;886;50.082;8.222;2023-02-15T05:08:39;3.30;99.90
1778;DHT22;886;50.082;8.222;2023-02-15T05:11:06;3.40;99.90
1778;DHT22;886;50.082;8.222;2023-02-15T05:13:35;3.40;99.90
1778;DHT22;886;50.082;8.222;2023-02-15T05:16:03;3.50;99.90
1778;DHT22;886;50.082;8.222;2023-02-15T05:18:31;3.40;99.90
1778;DHT22;886;50.082;8.222;2023-02-15T05:20:58;3.40;99.90
1778;DHT22;886;50.082;8.222;2023-02-15T05:23:25;3.40;99.90
1778;DHT22;886;50.082;8.222;2023-02-15T05:25:52;3.40;99.90
1778;DHT22;886;50.082;8.222;2023-02-15T05:28:39;3.40;99.90
1778;DHT22;886;50.082;8.222;2023-02-15T05:31:10;3.40;99.90
1778;DHT22;886;50.082;8.222;2023-02-15T05:33:40;3.40;99.90
1778;DHT22;886;50.082;8.222;2023-02-15T05:36:07;3.40;99.90
1778;DHT22;886;50.082;8.222;2023-02-15T05:38:35;3.40;99.90
1778;DHT22;886;50.082;8.222;2023-02-15T05:41:04;3.50;99.90
1778;DHT22;886;50.082;8.222;2023-02-15T05:43:32;3.60;99.90
1778;DHT22;886;50.082;8.222;2023-02-15T05:46:01;3.40;99.90
1778;DHT22;886;50.082;8.222;2023-02-15T05:48:30;3.40;99.90
1778;DHT22;886;50.082;8.222;2023-02-15T05:50:59;3.50;99.90
1778;DHT22;886;50.082;8.222;2023-02-15T05:53:28;3.50;99.90
1778;DHT22;886;50.082;8.222;2023-02-15T05:55:55;3.50;99.90
1778;DHT22;886;50.082;8.222;2023-02-15T05:58:27;3.50;99.90
1778;DHT22;886;50.082;8.222;2023-02-15T06:00:55;3.40;99.90
1778;DHT22;886;50.082;8.222;2023-02-15T06:03:24;3.40;99.90
1778;DHT22;886;50.082;8.222;2023-02-15T06:05:52;3.40;99.90
1778;DHT22;886;50.082;8.222;2023-02-15T06:08:20;3.20;99.90
1778;DHT22;886;50.082;8.222;2023-02-15T06:10:47;3.30;99.90
1778;DHT22;886;50.082;8.222;2023-02-15T06:13:15;3.20;99.90
1778;DHT22;886;50.082;8.222;2023-02-15T06:15:42;3.20;99.90
1778;DHT22;886;50.082;8.222;2023-02-15T06:18:09;3.30;99.90
1778;DHT22;886;50.082;8.222;2023-02-15T06:20:38;3.40;99.90
1778;DHT22;886;50.082;8.222;2023-02-15T06:23:05;3.40;99.90
1778;DHT22;886;50.082;8.222;2023-02-15T06:25:32;3.20;99.90
1778;DHT22;886;50.082;8.222;2023-02-15T06:28:02;3.20;99.90
1778;DHT22;886;50.082;8.222;2023-02-15T06:30:29;3.40;99.90
1778;DHT22;886;50.082;8.222;2023-02-15T06:32:57;3.40;99.90
1778;DHT22;886;50.082;8.222;2023-02-15T06:35:25;3.40;99.90
1778;DHT22;886;50.082;8.222;2023-02-15T06:37:53;3.30;99.90
1778;DHT22;886;50.082;8.222;2023-02-15T06:40:20;3.20;99.90
1778;DHT22;886;50.082;8.222;2023-02-15T06:42:48;3.30;99.90
1778;DHT22;886;50.082;8.222;2023-02-15T06:45:15;3.40;99.90
1778;DHT22;886;50.082;8.222;2023-02-15T06:47:42;3.40;99.90
1778;DHT22;886;50.082;8.222;2023-02-15T06:50:10;3.40;99.90
1778;DHT22;886;50.082;8.222;2023-02-15T06:52:38;3.40;99.90
1778;DHT22;886;50.082;8.222;2023-02-15T06:55:07;3.40;99.90
1778;DHT22;886;50.082;8.222;2023-02-15T06:57:34;3.40;99.90
1778;DHT22;886;50.082;8.222;2023-02-15T07:00:02;3.40;99.90
1778;DHT22;886;50.082;8.222;2023-02-15T07:02:31;3.30;99.90
1778;DHT22;886;50.082;8.222;2023-02-15T07:05:01;3.40;99.90
1778;DHT22;886;50.082;8.222;2023-02-15T07:07:29;3.40;99.90
1778;DHT22;886;50.082;8.222;2023-02-15T07:09:56;3.30;99.90
1778;DHT22;886;50.082;8.222;2023-02-15T07:12:25;3.30;99.90
1778;DHT22;886;50.082;8.222;2023-02-15T07:15:08;3.30;99.90
1778;DHT22;886;50.082;8.222;2023-02-15T07:17:36;3.40;99.90
1778;DHT22;886;50.082;8.222;2023-02-15T07:20:06;3.40;99.90
1778;DHT22;886;50.082;8.222;2023-02-15T07:22:37;3.20;99.90
1778;DHT22;886;50.082;8.222;2023-02-15T07:25:06;3.30;99.90
1778;DHT22;886;50.082;8.222;2023-02-15T07:27:36;3.30;99.90
1778;DHT22;886;50.082;8.222;2023-02-15T07:30:06;3.40;99.90
1778;DHT22;886;50.082;8.222;2023-02-15T07:32:36;3.50;99.90
1778;DHT22;886;50.082;8.222;2023-02-15T07:35:04;3.40;99.90
1778;DHT22;886;50.082;8.222;2023-02-15T07:37:31;3.30;99.90
1778;DHT22;886;50.082;8.222;2023-02-15T07:39:58;3.30;99.90
1778;DHT22;886;50.082;8.222;2023-02-15T07:42:26;3.30;99.90
1778;DHT22;886;50.082;8.222;2023-02-15T07:45:02;3.40;99.90
1778;DHT22;886;50.082;8.222;2023-02-15T07:47:38;3.30;99.90
1778;DHT22;886;50.082;8.222;2023-02-15T07:50:06;3.30;99.90
1778;DHT22;886;50.082;8.222;2023-02-15T07:52:33;3.30;99.90
1778;DHT22;886;50.082;8.222;2023-02-15T07:55:01;3.30;99.90
1778;DHT22;886;50.082;8.222;2023-02-15T07:57:30;3.40;99.90
1778;DHT22;886;50.082;8.222;2023-02-15T07:59:59;3.40;99.90
1778;DHT22;886;50.082;8.222;2023-02-15T08:02:26;3.50;99.90
1778;DHT22;886;50.082;8.222;2023-02-15T08:04:53;3.50;99.90
1778;DHT22;886;50.082;8.222;2023-02-15T08:07:20;3.40;99.90
1778;DHT22;886;50.082;8.222;2023-02-15T08:09:48;3.40;99.90
1778;DHT22;886;50.082;8.222;2023-02-15T08:12:15;3.50;99.90
1778;DHT22;886;50.082;8.222;2023-02-15T08:14:42;3.50;99.90
1778;DHT22;886;50.082;8.222;2023-02-15T08:17:11;3.50;99.90
1778;DHT22;886;50.082;8.222;2023-02-15T08:19:38;3.50;99.90
1778;DHT22;886;50.082;8.222;2023-02-15T08:22:06;3.50;99.90
1778;DHT22;886;50.082;8.222;2023-02-15T08:24:37;3.60;99.90
1778;DHT22;886;50.082;8.222;2023-02-15T08:27:05;3.60;99.90
1778;DHT22;886;50.082;8.222;2023-02-15T08:29:33;3.60;99.90
1778;DHT22;886;50.082;8.222;2023-02-15T08:32:04;3.60;99.90
1778;DHT22;886;50.082;8.222;2023-02-15T08:34:35;3.60;99.90
1778;DHT22;886;50.082;8.222;2023-02-15T08:37:03;3.50;99.90
1778;DHT22;886;50.082;8.222;2023-02-15T08:39:33;3.50;99.90
1778;DHT22;886;50.082;8.222;2023-02-15T08:42:00;3.40;99.90
1778;DHT22;886;50.082;8.222;2023-02-15T08:44:28;3.30;99.90
1778;DHT22;886;50.082;8.222;2023-02-15T08:46:55;3.30;99.90
1778;DHT22;886;50.082;8.222;2023-02-15T08:49:29;3.20;99.90
1778;DHT22;886;50.082;8.222;2023-02-15T08:51:57;3.30;99.90
1778;DHT22;886;50.082;8.222;2023-02-15T08:54:27;3.30;99.90
1778;DHT22;886;50.082;8.222;2023-02-15T08:56:55;3.30;99.90
1778;DHT22;886;50.082;8.222;2023-02-15T08:59:22;3.30;99.90
1778;DHT22;886;50.082;8.222;2023-02-15T09:01:55;3.40;99.90
1778;DHT22;886;50.082;8.222;2023-02-15T09:04:36;3.50;99.90
1778;DHT22;886;50.082;8.222;2023-02-15T09:07:05;3.50;99.90
1778;DHT22;886;50.082;8.222;2023-02-15T09:09:32;3.50;99.90
1778;DHT22;886;50.082;8.222;2023-02-15T09:12:00;3.40;99.90
1778;DHT22;886;50.082;8.222;2023-02-15T09:14:27;3.40;99.90
1778;DHT22;886;50.082;8.222;2023-02-15T09:16:55;3.40;99.90
1778;DHT22;886;50.082;8.222;2023-02-15T09:19:24;3.40;99.90
1778;DHT22;886;50.082;8.222;2023-02-15T09:21:51;3.40;99.90
1778;DHT22;886;50.082;8.222;2023-02-15T09:24:20;3.50;99.90
1778;DHT22;886;50.082;8.222;2023-02-15T09:26:48;3.50;99.90
1778;DHT22;886;50.082;8.222;2023-02-15T09:29:17;3.50;99.90
1778;DHT22;886;50.082;8.222;2023-02-15T09:31:46;3.40;99.90
1778;DHT22;886;50.082;8.222;2023-02-15T09:34:16;3.40;99.90
1778;DHT22;886;50.082;8.222;2023-02-15T09:36:45;3.40;99.90
1778;DHT22;886;50.082;8.222;2023-02-15T09:39:15;3.40;99.90
1778;DHT22;886;50.082;8.222;2023-02-15T09:45:20;3.50;99.90
1778;DHT22;886;50.082;8.222;2023-02-15T09:48:21;3.40;99.90
1778;DHT22;886;50.082;8.222;2023-02-15T09:51:17;3.50;99.90
1778;DHT22;886;50.082;8.222;2023-02-15T09:54:01;3.60;99.90
1778;DHT22;886;50.082;8.222;2023-02-15T09:56:40;3.60;99.90
1778;DHT22;886;50.082;8.222;2023-02-15T09:59:18;3.50;99.90
1778;DHT22;886;50.082;8.222;2023-02-15T10:01:54;3.60;99.90
1778;DHT22;886;50.082;8.222;2023-02-15T10:04:54;3.70;99.90
1778;DHT22;886;50.082;8.222;2023-02-15T10:07:39;3.60;99.90
1778;DHT22;886;50.082;8.222;2023-02-15T10:10:23;3.80;99.90
1778;DHT22;886;50.082;8.222;2023-02-15T10:13:05;3.80;99.90
1778;DHT22;886;50.082;8.222;2023-02-15T10:15:53;3.60;99.90
1778;DHT22;886;50.082;8.222;2023-02-15T10:18:38;3.70;99.90
1778;DHT22;886;50.082;8.222;2023-02-15T10:21:17;3.70;99.90
1778;DHT22;886;50.082;8.222;2023-02-15T10:24:04;3.70;99.90
1778;DHT22;886;50.082;8.222;2023-02-15T10:26:44;3.70;99.90
1778;DHT22;886;50.082;8.222;2023-02-15T10:29:20;3.70;99.90
1778;DHT22;886;50.082;8.222;2023-02-15T10:32:01;3.70;99.90
1778;DHT22;886;50.082;8.222;2023-02-15T10:34:37;3.70;99.90
1778;DHT22;886;50.082;8.222;2023-02-15T10:37:22;3.70;99.90
1778;DHT22;886;50.082;8.222;2023-02-15T10:40:08;3.80;99.90
1778;DHT22;886;50.082;8.222;2023-02-15T10:43:01;3.90;99.90
1778;DHT22;886;50.082;8.222;2023-02-15T10:45:41;3.90;99.90
1778;DHT22;886;50.082;8.222;2023-02-15T10:51:25;3.90;99.90
1778;DHT22;886;50.082;8.222;2023-02-15T10:54:05;3.90;99.90
1778;DHT22;886;50.082;8.222;2023-02-15T10:56:43;3.90;99.90
1778;DHT22;886;50.082;8.222;2023-02-15T10:59:30;3.90;99.90
1778;DHT22;886;50.082;8.222;2023-02-15T11:02:12;3.90;99.90
1778;DHT22;886;50.082;8.222;2023-02-15T11:04:54;3.90;99.90
1778;DHT22;886;50.082;8.222;2023-02-15T11:07:29;3.90;99.90
1778;DHT22;886;50.082;8.222;2023-02-15T11:10:05;4.00;99.90
1778;DHT22;886;50.082;8.222;2023-02-15T11:12:51;4.00;99.90
1778;DHT22;886;50.082;8.222;2023-02-15T11:15:25;4.00;99.90
1778;DHT22;886;50.082;8.222;2023-02-15T11:17:58;4.10;99.90
1778;DHT22;886;50.082;8.222;2023-02-15T11:20:35;4.00;99.90
1778;DHT22;886;50.082;8.222;2023-02-15T11:23:12;3.90;99.90
1778;DHT22;886;50.082;8.222;2023-02-15T11:25:44;4.00;99.90
1778;DHT22;886;50.082;8.222;2023-02-15T11:28:19;4.20;99.90
1778;DHT22;886;50.082;8.222;2023-02-15T11:30:51;4.00;99.90
1778;DHT22;886;50.082;8.222;2023-02-15T11:33:25;3.90;99.90
1778;DHT22;886;50.082;8.222;2023-02-15T11:35:59;4.00;99.90
1778;DHT22;886;50.082;8.222;2023-02-15T11:38:32;4.00;99.90
1778;DHT22;886;50.082;8.222;2023-02-15T11:41:02;4.00;99.90
1778;DHT22;886;50.082;8.222;2023-02-15T11:43:35;4.10;99.90
1778;DHT22;886;50.082;8.222;2023-02-15T11:46:05;4.00;99.90
1778;DHT22;886;50.082;8.222;2023-02-15T11:48:38;4.20;99.90
1778;DHT22;886;50.082;8.222;2023-02-15T11:51:12;4.20;99.90
1778;DHT22;886;50.082;8.222;2023-02-15T11:53:43;4.10;99.90
1778;DHT22;886;50.082;8.222;2023-02-15T11:56:14;4.10;99.90
1778;DHT22;886;50.082;8.222;2023-02-15T11:58:44;4.10;99.90
1778;DHT22;886;50.082;8.222;2023-02-15T12:01:17;4.10;99.90
1778;DHT22;886;50.082;8.222;2023-02-15T12:03:48;4.10;99.90
1778;DHT22;886;50.082;8.222;2023-02-15T12:06:24;4.20;99.90
1778;DHT22;886;50.082;8.222;2023-02-15T12:09:02;4.30;99.90
1778;DHT22;886;50.082;8.222;2023-02-15T12:11:35;4.40;99.90
1778;DHT22;886;50.082;8.222;2023-02-15T12:14:05;4.30;99.90
1778;DHT22;886;50.082;8.222;2023-02-15T12:16:41;4.40;99.90
1778;DHT22;886;50.082;8.222;2023-02-15T12:19:26;4.70;99.90
1778;DHT22;886;50.082;8.222;2023-02-15T12:21:58;4.70;99.90
1778;DHT22;886;50.082;8.222;2023-02-15T12:24:28;4.60;99.90
1778;DHT22;886;50.082;8.222;2023-02-15T12:26:59;4.60;99.90
1778;DHT22;886;50.082;8.222;2023-02-15T12:29:31;4.60;99.90
1778;DHT22;886;50.082;8.222;2023-02-15T12:32:03;4.60;99.90
1778;DHT22;886;50.082;8.222;2023-02-15T12:34:35;4.50;99.90
1778;DHT22;886;50.082;8.222;2023-02-15T12:37:14;4.40;99.90
1778;DHT22;886;50.082;8.222;2023-02-15T12:39:51;4.60;99.90
1778;DHT22;886;50.082;8.222;2023-02-15T12:42:21;4.70;99.90
1778;DHT22;886;50.082;8.222;2023-02-15T12:44:57;4.80;99.90
1778;DHT22;886;50.082;8.222;2023-02-15T12:47:27;4.80;99.90
1778;DHT22;886;50.082;8.222;2023-02-15T12:50:08;4.80;99.90
1778;DHT22;886;50.082;8.222;2023-02-15T12:52:46;4.80;99.90
1778;DHT22;886;50.082;8.222;2023-02-15T12:55:21;4.70;99.90
1778;DHT22;886;50.082;8.222;2023-02-15T12:58:05;4.60;99.90
1778;DHT22;886;50.082;8.222;2023-02-15T13:00:33;4.70;99.90
1778;DHT22;886;50.082;8.222;2023-02-15T13:03:01;4.80;99.90
1778;DHT22;886;50.082;8.222;2023-02-15T13:05:32;4.70;99.90
1778;DHT22;886;50.082;8.222;2023-02-15T13:08:10;4.70;99.90
1778;DHT22;886;50.082;8.222;2023-02-15T13:10:41;4.70;99.90
1778;DHT22;886;50.082;8.222;2023-02-15T13:13:10;4.70;99.90
1778;DHT22;886;50.082;8.222;2023-02-15T13:15:45;4.70;99.90
1778;DHT22;886;50.082;8.222;2023-02-15T13:18:17;4.70;99.90
1778;DHT22;886;50.082;8.222;2023-02-15T13:20:46;4.50;99.90
1778;DHT22;886;50.082;8.222;2023-02-15T13:23:24;4.60;99.90
1778;DHT22;886;50.082;8.222;2023-02-15T13:25:55;4.60;99.90
1778;DHT22;886;50.082;8.222;2023-02-15T13:28:29;4.60;99.90
1778;DHT22;886;50.082;8.222;2023-02-15T13:31:01;4.70;99.90
1778;DHT22;886;50.082;8.222;2023-02-15T13:33:32;4.80;99.90
1778;DHT22;886;50.082;8.222;2023-02-15T13:36:07;4.80;99.90
1778;DHT22;886;50.082;8.222;2023-02-15T13:38:46;4.80;99.90
1778;DHT22;886;50.082;8.222;2023-02-15T13:41:23;4.90;99.90
1778;DHT22;886;50.082;8.222;2023-02-15T13:44:03;4.80;99.90
1778;DHT22;886;50.082;8.222;2023-02-15T13:46:48;4.90;99.90
1778;DHT22;886;50.082;8.222;2023-02-15T13:49:32;4.90;99.90
1778;DHT22;886;50.082;8.222;2023-02-15T13:56:16;4.80;99.90
1778;DHT22;886;50.082;8.222;2023-02-15T13:59:14;4.80;99.90
1778;DHT22;886;50.082;8.222;2023-02-15T14:01:56;4.80;99.90
1778;DHT22;886;50.082;8.222;2023-02-15T14:04:43;4.80;99.90
1778;DHT22;886;50.082;8.222;2023-02-15T14:07:36;4.80;99.90
1778;DHT22;886;50.082;8.222;2023-02-15T14:10:34;4.80;99.90
1778;DHT22;886;50.082;8.222;2023-02-15T14:13:44;4.90;99.90
1778;DHT22;886;50.082;8.222;2023-02-15T14:16:30;4.90;99.90
1778;DHT22;886;50.082;8.222;2023-02-15T14:19:10;4.90;99.90
1778;DHT22;886;50.082;8.222;2023-02-15T14:21:47;4.80;99.90
1778;DHT22;886;50.082;8.222;2023-02-15T14:24:28;4.80;99.90
1778;DHT22;886;50.082;8.222;2023-02-15T14:27:05;4.90;99.90
1778;DHT22;886;50.082;8.222;2023-02-15T14:29:47;4.90;99.90
1778;DHT22;886;50.082;8.222;2023-02-15T14:32:20;4.80;99.90
1778;DHT22;886;50.082;8.222;2023-02-15T14:34:59;4.80;99.90
1778;DHT22;886;50.082;8.222;2023-02-15T14:37:42;4.70;99.90
1778;DHT22;886;50.082;8.222;2023-02-15T14:40:22;4.70;99.90
1778;DHT22;886;50.082;8.222;2023-02-15T14:43:19;4.70;99.90
1778;DHT22;886;50.082;8.222;2023-02-15T14:45:55;4.80;99.90
1778;DHT22;886;50.082;8.222;2023-02-15T14:48:26;4.80;99.90
1778;DHT22;886;50.082;8.222;2023-02-15T14:50:58;4.80;99.90
1778;DHT22;886;50.082;8.222;2023-02-15T14:53:36;4.80;99.90
1778;DHT22;886;50.082;8.222;2023-02-15T14:56:22;4.80;99.90
1778;DHT22;886;50.082;8.222;2023-02-15T14:59:01;4.90;99.90
1778;DHT22;886;50.082;8.222;2023-02-15T15:01:41;4.90;99.90
1778;DHT22;886;50.082;8.222;2023-02-15T15:04:12;4.90;99.90
1778;DHT22;886;50.082;8.222;2023-02-15T15:06:42;5.00;99.90
1778;DHT22;886;50.082;8.222;2023-02-15T15:09:13;5.00;99.90
1778;DHT22;886;50.082;8.222;2023-02-15T15:12:36;4.90;99.90
1778;DHT22;886;50.082;8.222;2023-02-15T15:15:09;4.90;99.90
1778;DHT22;886;50.082;8.222;2023-02-15T15:17:55;4.90;99.90
1778;DHT22;886;50.082;8.222;2023-02-15T15:20:45;4.90;99.90
1778;DHT22;886;50.082;8.222;2023-02-15T15:23:47;4.90;99.90
1778;DHT22;886;50.082;8.222;2023-02-15T15:26:27;4.90;99.90
1778;DHT22;886;50.082;8.222;2023-02-15T15:28:58;5.00;99.90
1778;DHT22;886;50.082;8.222;2023-02-15T15:31:37;4.90;99.90
1778;DHT22;886;50.082;8.222;2023-02-15T15:34:35;5.00;99.90
1778;DHT22;886;50.082;8.222;2023-02-15T15:38:03;5.10;99.90
1778;DHT22;886;50.082;8.222;2023-02-15T15:44:11;5.00;99.90
1778;DHT22;886;50.082;8.222;2023-02-15T15:47:21;5.00;99.90
1778;DHT22;886;50.082;8.222;2023-02-15T15:50:10;5.00;99.90
1778;DHT22;886;50.082;8.222;2023-02-15T15:52:46;5.00;99.90
1778;DHT22;886;50.082;8.222;2023-02-15T15:55:17;5.00;99.90
1778;DHT22;886;50.082;8.222;2023-02-15T15:57:47;5.00;99.90
1778;DHT22;886;50.082;8.222;2023-02-15T16:00:31;5.00;99.90
1778;DHT22;886;50.082;8.222;2023-02-15T16:03:01;4.90;99.90
1778;DHT22;886;50.082;8.222;2023-02-15T16:05:37;4.90;99.90
1778;DHT22;886;50.082;8.222;2023-02-15T16:08:05;4.90;99.90
1778;DHT22;886;50.082;8.222;2023-02-15T16:10:33;4.90;99.90
1778;DHT22;886;50.082;8.222;2023-02-15T16:13:04;4.90;99.90
1778;DHT22;886;50.082;8.222;2023-02-15T16:15:35;4.90;99.90
1778;DHT22;886;50.082;8.222;2023-02-15T16:18:04;4.90;99.90
1778;DHT22;886;50.082;8.222;2023-02-15T16:20:33;4.90;99.90
1778;DHT22;886;50.082;8.222;2023-02-15T16:23:15;4.90;99.90
1778;DHT22;886;50.082;8.222;2023-02-15T16:26:01;4.90;99.90
1778;DHT22;886;50.082;8.222;2023-02-15T16:28:33;4.80;99.90
1778;DHT22;886;50.082;8.222;2023-02-15T16:31:06;4.90;99.90
1778;DHT22;886;50.082;8.222;2023-02-15T16:33:40;4.90;99.90
1778;DHT22;886;50.082;8.222;2023-02-15T16:36:13;4.60;99.90
1778;DHT22;886;50.082;8.222;2023-02-15T16:39:07;4.60;99.90
1778;DHT22;886;50.082;8.222;2023-02-15T16:41:37;4.70;99.90
1778;DHT22;886;50.082;8.222;2023-02-15T16:44:07;4.70;99.90
1778;DHT22;886;50.082;8.222;2023-02-15T16:46:41;4.70;99.90
1778;DHT22;886;50.082;8.222;2023-02-15T16:49:16;4.80;99.90
1778;DHT22;886;50.082;8.222;2023-02-15T16:51:54;4.80;99.90
1778;DHT22;886;50.082;8.222;2023-02-15T16:54:42;4.80;99.90
1778;DHT22;886;50.082;8.222;2023-02-15T16:57:16;4.80;99.90
1778;DHT22;886;50.082;8.222;2023-02-15T16:59:47;4.90;99.90
1778;DHT22;886;50.082;8.222;2023-02-15T17:02:19;4.80;99.90
1778;DHT22;886;50.082;8.222;2023-02-15T17:05:16;4.80;99.90
1778;DHT22;886;50.082;8.222;2023-02-15T17:08:03;4.70;99.90
1778;DHT22;886;50.082;8.222;2023-02-15T17:10:34;4.70;99.90
1778;DHT22;886;50.082;8.222;2023-02-15T17:13:04;4.70;99.90
1778;DHT22;886;50.082;8.222;2023-02-15T17:15:39;4.80;99.90
1778;DHT22;886;50.082;8.222;2023-02-15T17:18:12;4.80;99.90
1778;DHT22;886;50.082;8.222;2023-02-15T17:20:44;4.90;99.90
1778;DHT22;886;50.082;8.222;2023-02-15T17:23:26;4.90;99.90
1778;DHT22;886;50.082;8.222;2023-02-15T17:25:57;5.00;99.90
1778;DHT22;886;50.082;8.222;2023-02-15T17:28:26;4.90;99.90
1778;DHT22;886;50.082;8.222;2023-02-15T17:30:57;4.90;99.90
1778;DHT22;886;50.082;8.222;2023-02-15T17:33:35;4.90;99.90
1778;DHT22;886;50.082;8.222;2023-02-15T17:36:06;4.90;99.90
1778;DHT22;886;50.082;8.222;2023-02-15T17:38:58;4.90;99.90